Time;durP1;ratioP1;P1;durP2;ratioP2;P2;SDS_P1;SDS_P2;PMS_P1;PMS_P2;Temp;Humidity;BMP_temperature;BMP_pressure;BME280_temperature;BME280_humidity;BME280_pressure;Samples;Min_cycle;Max_cycle;Signal;HPM_P1;HPM_P2
2023/03/15 00:01:31;;;;;;;2.35;1.60;;;17.80;64.30;;;;;;5008653;28;20072;-80
2023/03/15 00:03:57;;;;;;;1.88;1.50;;;17.80;64.40;;;;;;5007610;28;20050;-80
2023/03/15 00:06:22;;;;;;;1.60;1.50;;;17.80;64.30;;;;;;5007533;28;20419;-80
2023/03/15 00:08:48;;;;;;;1.52;1.42;;;17.70;64.40;;;;;;5007650;28;20054;-80
2023/03/15 00:11:16;;;;;;;1.52;1.42;;;17.80;64.30;;;;;;5008417;28;20054;-80
2023/03/15 00:13:42;;;;;;;1.40;1.30;;;17.70;64.30;;;;;;5008852;28;20037;-80
2023/03/15 00:16:08;;;;;;;1.60;1.50;;;17.70;64.20;;;;;;5001161;28;20038;-80
2023/03/15 00:18:34;;;;;;;1.88;1.40;;;17.70;64.20;;;;;;5009789;28;20045;-80
2023/03/15 00:20:59;;;;;;;2.65;1.45;;;17.70;64.20;;;;;;5000290;28;20080;-80
2023/03/15 00:23:25;;;;;;;2.92;1.10;;;17.70;64.20;;;;;;5009244;28;20037;-80
2023/03/15 00:25:51;;;;;;;2.95;1.67;;;17.70;64.20;;;;;;5019240;28;20507;-80
2023/03/15 00:28:17;;;;;;;1.70;1.60;;;17.70;64.20;;;;;;5009327;28;20041;-80
2023/03/15 00:30:43;;;;;;;1.73;1.63;;;17.60;64.20;;;;;;5009848;28;20565;-80
2023/03/15 00:33:12;;;;;;;1.55;1.45;;;17.60;65.00;;;;;;5015341;28;20087;-81
2023/03/15 00:35:39;;;;;;;1.95;1.60;;;17.60;64.30;;;;;;5012617;28;20577;-80
2023/03/15 00:38:05;;;;;;;2.15;1.50;;;17.60;64.30;;;;;;5006491;28;20408;-80
2023/03/15 00:40:31;;;;;;;1.55;1.45;;;17.60;64.40;;;;;;5007271;28;20046;-80
2023/03/15 00:42:56;;;;;;;1.35;1.27;;;17.60;64.40;;;;;;5010280;28;20046;-80
2023/03/15 00:45:22;;;;;;;1.50;1.40;;;17.60;64.20;;;;;;5010336;28;20052;-80
2023/03/15 00:47:54;;;;;;;2.05;1.40;;;17.60;64.40;;;;;;5008692;28;20525;-80
2023/03/15 00:50:20;;;;;;;1.52;1.42;;;17.50;64.20;;;;;;5009464;28;20050;-80
2023/03/15 00:52:45;;;;;;;1.23;1.13;;;17.60;64.20;;;;;;5006892;28;20373;-80
2023/03/15 00:55:12;;;;;;;1.50;1.35;;;17.50;64.00;;;;;;5007985;28;20046;-81
2023/03/15 00:57:39;;;;;;;2.33;1.25;;;17.50;64.00;;;;;;5008491;28;20506;-80
2023/03/15 01:00:08;;;;;;;1.40;1.30;;;17.50;64.00;;;;;;5008371;28;20049;-80
2023/03/15 01:02:36;;;;;;;1.35;1.25;;;17.50;64.00;;;;;;5007146;28;20038;-80
2023/03/15 01:05:02;;;;;;;1.70;1.60;;;17.50;64.00;;;;;;5006666;28;20049;-80
2023/03/15 01:07:27;;;;;;;1.50;1.40;;;17.50;64.10;;;;;;5004216;28;20425;-80
2023/03/15 01:09:53;;;;;;;1.50;1.40;;;17.50;63.90;;;;;;5008342;28;20510;-80
2023/03/15 01:12:19;;;;;;;1.20;1.10;;;17.50;63.90;;;;;;5007432;28;20065;-82
2023/03/15 01:14:44;;;;;;;1.10;1.00;;;17.50;64.00;;;;;;5006478;28;20115;-82
2023/03/15 01:17:10;;;;;;;1.67;1.50;;;17.40;63.80;;;;;;5006005;28;20077;-82
2023/03/15 01:19:36;;;;;;;1.30;1.20;;;17.40;63.90;;;;;;5004456;28;20087;-82
2023/03/15 01:22:01;;;;;;;1.65;1.55;;;17.40;63.80;;;;;;5008872;28;20056;-83
2023/03/15 01:24:27;;;;;;;1.52;1.35;;;17.40;63.80;;;;;;5007372;28;20121;-82
2023/03/15 01:26:52;;;;;;;1.52;1.20;;;17.40;64.00;;;;;;5011040;28;20411;-82
2023/03/15 01:29:18;;;;;;;1.50;1.40;;;17.40;63.70;;;;;;5006986;28;20045;-82
2023/03/15 01:31:44;;;;;;;1.63;1.30;;;17.40;63.90;;;;;;5003700;28;20056;-82
2023/03/15 01:34:09;;;;;;;1.27;1.25;;;17.30;64.00;;;;;;5005669;28;20037;-82
2023/03/15 01:36:35;;;;;;;1.40;1.30;;;17.30;63.90;;;;;;5008617;28;20119;-82
2023/03/15 01:39:00;;;;;;;1.52;1.42;;;17.30;63.70;;;;;;5007951;28;20377;-82
2023/03/15 01:41:26;;;;;;;0.90;0.90;;;17.30;64.20;;;;;;5007437;28;20042;-82
2023/03/15 01:43:52;;;;;;;1.40;1.30;;;17.30;63.90;;;;;;5005722;28;20022;-81
2023/03/15 01:46:25;;;;;;;1.70;0.93;;;17.30;63.80;;;;;;5003264;28;20068;-81
2023/03/15 01:49:00;;;;;;;1.20;1.10;;;17.30;63.90;;;;;;5008614;28;20049;-82
2023/03/15 01:51:28;;;;;;;1.20;1.10;;;17.30;63.80;;;;;;5008741;28;20038;-81
2023/03/15 01:54:18;;;;;;;1.17;1.10;;;17.30;63.80;;;;;;5008395;28;20072;-81
2023/03/15 01:56:56;;;;;;;1.20;1.10;;;17.30;63.80;;;;;;5003663;28;20054;-81
2023/03/15 01:59:48;;;;;;;1.27;1.17;;;17.30;64.00;;;;;;5023926;28;20037;-82
2023/03/15 02:02:13;;;;;;;1.30;1.20;;;17.20;63.80;;;;;;5000846;28;20131;-82
2023/03/15 02:04:48;;;;;;;2.05;1.10;;;17.20;64.00;;;;;;5025592;28;20507;-82
2023/03/15 02:07:14;;;;;;;1.50;1.40;;;17.20;64.00;;;;;;5012594;28;20041;-82
2023/03/15 02:10:02;;;;;;;1.30;1.20;;;17.20;63.80;;;;;;5026249;28;20042;-82
2023/03/15 02:12:29;;;;;;;1.42;1.30;;;17.20;64.20;;;;;;5010592;28;20057;-82
2023/03/15 02:14:55;;;;;;;1.88;1.08;;;17.20;63.60;;;;;;5019906;28;20041;-82
2023/03/15 02:17:22;;;;;;;1.10;1.10;;;17.20;64.20;;;;;;5022511;28;20050;-82
2023/03/15 02:20:09;;;;;;;1.33;1.27;;;17.20;64.80;;;;;;5024492;28;20104;-82
2023/03/15 02:22:54;;;;;;;1.20;1.20;;;17.20;63.90;;;;;;5010825;28;20121;-82
2023/03/15 02:25:35;;;;;;;1.35;1.25;;;17.20;64.20;;;;;;4995292;28;20053;-82
2023/03/15 02:28:01;;;;;;;1.35;1.25;;;17.10;63.80;;;;;;4994470;28;20515;-82
2023/03/15 02:30:27;;;;;;;1.48;1.23;;;17.10;63.70;;;;;;5038242;28;20181;-82
2023/03/15 02:32:52;;;;;;;0.88;0.88;;;17.10;63.90;;;;;;4998557;28;20042;-81
2023/03/15 02:35:26;;;;;;;1.17;1.08;;;17.10;63.70;;;;;;5047803;28;20041;-82
2023/03/15 02:37:52;;;;;;;1.00;1.00;;;17.10;64.20;;;;;;5008127;28;20044;-82
2023/03/15 02:40:19;;;;;;;1.40;1.30;;;17.10;64.20;;;;;;5025921;28;20042;-82
2023/03/15 02:42:45;;;;;;;1.30;1.20;;;17.10;64.20;;;;;;5007639;28;20096;-82
2023/03/15 02:45:11;;;;;;;1.15;1.13;;;17.00;63.60;;;;;;5003499;28;20046;-82
2023/03/15 02:47:36;;;;;;;1.42;1.30;;;17.10;64.10;;;;;;5005111;28;20050;-82
2023/03/15 02:50:02;;;;;;;0.90;0.90;;;17.10;63.40;;;;;;5006086;28;20041;-82
2023/03/15 02:52:28;;;;;;;1.02;1.02;;;17.10;63.50;;;;;;5007912;28;20049;-82
2023/03/15 02:54:53;;;;;;;1.15;1.05;;;17.00;63.50;;;;;;5007056;28;20408;-82
2023/03/15 02:57:19;;;;;;;1.33;1.23;;;17.10;64.00;;;;;;5006055;28;20074;-82
2023/03/15 02:59:45;;;;;;;1.13;1.02;;;17.00;63.40;;;;;;5006190;28;20040;-82
2023/03/15 03:02:10;;;;;;;1.10;1.10;;;17.10;63.20;;;;;;5004874;28;20492;-82
2023/03/15 03:04:37;;;;;;;1.38;1.27;;;17.10;63.20;;;;;;5006120;28;20069;-82
2023/03/15 03:07:03;;;;;;;0.95;0.93;;;17.00;63.20;;;;;;5006547;28;20542;-82
2023/03/15 03:09:28;;;;;;;1.38;1.27;;;17.00;63.30;;;;;;5007638;28;21052;-82
2023/03/15 03:11:54;;;;;;;1.27;1.00;;;17.00;63.30;;;;;;5007440;28;20038;-82
2023/03/15 03:14:22;;;;;;;1.30;1.20;;;17.00;63.50;;;;;;5009592;28;20466;-82
2023/03/15 03:16:48;;;;;;;1.00;0.90;;;17.00;63.30;;;;;;5005412;28;20092;-82
2023/03/15 03:19:14;;;;;;;1.00;1.00;;;17.00;63.20;;;;;;5007583;28;20408;-82
2023/03/15 03:21:42;;;;;;;0.80;0.80;;;16.90;63.30;;;;;;5004953;28;20042;-82
2023/03/15 03:24:08;;;;;;;0.70;0.70;;;16.90;63.20;;;;;;5039801;28;20054;-82
2023/03/15 03:26:33;;;;;;;1.00;1.00;;;16.90;63.50;;;;;;5005454;28;20050;-82
2023/03/15 03:28:59;;;;;;;0.82;0.82;;;16.90;63.40;;;;;;5041123;28;20069;-82
2023/03/15 03:31:26;;;;;;;1.08;1.08;;;16.90;63.40;;;;;;5001801;28;20046;-82
2023/03/15 03:33:51;;;;;;;1.00;0.95;;;16.90;63.60;;;;;;5009388;28;20050;-82
2023/03/15 03:36:17;;;;;;;0.90;0.90;;;16.90;63.60;;;;;;5003698;28;20522;-82
2023/03/15 03:38:44;;;;;;;1.20;1.10;;;16.90;63.90;;;;;;5008759;28;20481;-82
2023/03/15 03:41:10;;;;;;;1.45;1.00;;;16.90;63.80;;;;;;5003195;28;20106;-82
2023/03/15 03:43:35;;;;;;;1.27;1.15;;;16.80;63.60;;;;;;5009627;28;20519;-82
2023/03/15 03:46:01;;;;;;;1.23;1.00;;;16.80;63.60;;;;;;5039968;28;20073;-82
2023/03/15 03:48:27;;;;;;;0.95;0.90;;;16.80;63.70;;;;;;5009609;28;20056;-82
2023/03/15 03:50:52;;;;;;;1.27;1.20;;;16.80;63.90;;;;;;5001681;28;20109;-82
2023/03/15 03:53:18;;;;;;;0.80;0.80;;;16.80;63.60;;;;;;5005350;28;20050;-82
2023/03/15 03:55:45;;;;;;;0.90;0.90;;;16.80;64.00;;;;;;5002324;28;20250;-82
2023/03/15 03:58:10;;;;;;;1.20;1.08;;;16.80;64.20;;;;;;5004023;28;20057;-82
2023/03/15 04:00:36;;;;;;;1.05;1.05;;;16.80;63.90;;;;;;5008710;28;20049;-81
2023/03/15 04:03:03;;;;;;;1.20;1.10;;;16.80;63.60;;;;;;4999117;28;20046;-82
2023/03/15 04:05:29;;;;;;;0.90;0.90;;;16.80;64.00;;;;;;5004681;28;20053;-82
2023/03/15 04:07:54;;;;;;;0.80;0.80;;;16.70;63.80;;;;;;5008849;28;20426;-82
2023/03/15 04:10:25;;;;;;;0.90;0.90;;;16.80;63.60;;;;;;5008501;28;20046;-82
2023/03/15 04:12:52;;;;;;;1.00;1.00;;;16.80;63.80;;;;;;5002980;28;20043;-82
2023/03/15 04:15:17;;;;;;;1.20;0.80;;;16.70;63.70;;;;;;5007083;28;20069;-82
2023/03/15 04:17:43;;;;;;;0.98;0.98;;;16.70;64.00;;;;;;5003017;28;20062;-82
2023/03/15 04:20:11;;;;;;;1.05;0.95;;;16.70;64.00;;;;;;5036097;28;20466;-82
2023/03/15 04:22:37;;;;;;;1.00;0.90;;;16.70;64.00;;;;;;5041676;28;20033;-82
2023/03/15 04:25:03;;;;;;;1.20;1.10;;;16.70;64.00;;;;;;5056038;28;20054;-82
2023/03/15 04:27:29;;;;;;;1.13;1.02;;;16.70;63.60;;;;;;5013110;28;20463;-82
2023/03/15 04:29:55;;;;;;;0.90;0.90;;;16.70;64.00;;;;;;5032264;28;20068;-82
2023/03/15 04:32:20;;;;;;;1.25;1.15;;;16.70;63.80;;;;;;4995884;28;20131;-82
2023/03/15 04:34:50;;;;;;;1.00;0.90;;;16.70;63.90;;;;;;5006141;28;20038;-82
2023/03/15 04:37:16;;;;;;;1.70;1.20;;;16.70;63.90;;;;;;5007862;28;20060;-82
2023/03/15 04:39:42;;;;;;;1.00;1.00;;;16.70;64.00;;;;;;5008698;28;20038;-82
2023/03/15 04:42:08;;;;;;;1.27;0.82;;;16.70;64.00;;;;;;5004447;28;20053;-82
2023/03/15 04:44:33;;;;;;;0.68;0.60;;;16.60;63.70;;;;;;5007577;28;20579;-82
2023/03/15 04:46:59;;;;;;;0.75;0.60;;;16.70;64.00;;;;;;5006266;28;20045;-82
2023/03/15 04:49:25;;;;;;;0.70;0.70;;;16.60;63.80;;;;;;5006710;28;20033;-82
2023/03/15 04:51:50;;;;;;;1.10;1.10;;;16.70;64.40;;;;;;4989092;28;20119;-82
2023/03/15 04:54:16;;;;;;;0.73;0.73;;;16.70;64.20;;;;;;5008037;28;20041;-82
2023/03/15 04:56:41;;;;;;;0.80;0.80;;;16.60;64.20;;;;;;5008792;28;20397;-82
2023/03/15 04:59:07;;;;;;;0.98;0.88;;;16.60;63.90;;;;;;5003198;28;20077;-82
2023/03/15 05:01:33;;;;;;;0.70;0.70;;;16.60;64.30;;;;;;5007277;28;20050;-82
2023/03/15 05:03:58;;;;;;;0.85;0.70;;;16.60;64.60;;;;;;5008691;28;20123;-82
2023/03/15 05:06:24;;;;;;;0.70;0.70;;;16.60;64.60;;;;;;5007741;28;20054;-82
2023/03/15 05:08:50;;;;;;;0.65;0.65;;;16.60;64.60;;;;;;5007782;28;20527;-82
2023/03/15 05:11:15;;;;;;;0.80;0.80;;;16.60;64.60;;;;;;5007333;28;20503;-82
2023/03/15 05:13:41;;;;;;;0.70;0.70;;;16.60;64.60;;;;;;5006712;28;20045;-82
2023/03/15 05:16:07;;;;;;;1.55;0.90;;;16.60;64.60;;;;;;5004192;28;20080;-82
2023/03/15 05:18:32;;;;;;;0.80;0.80;;;16.60;64.70;;;;;;5021416;28;20496;-82
2023/03/15 05:20:58;;;;;;;1.13;0.90;;;16.60;64.10;;;;;;5007633;28;20030;-82
2023/03/15 05:23:24;;;;;;;0.75;0.75;;;16.60;64.70;;;;;;5005756;28;20469;-82
2023/03/15 05:25:53;;;;;;;0.70;0.70;;;16.60;64.60;;;;;;5002633;28;20049;-82
2023/03/15 05:28:23;;;;;;;0.90;0.90;;;16.60;64.60;;;;;;5023582;28;20049;-82
2023/03/15 05:30:50;;;;;;;0.82;0.82;;;16.50;64.40;;;;;;5005627;28;20045;-82
2023/03/15 05:33:16;;;;;;;0.90;0.90;;;16.50;64.30;;;;;;4988711;28;20511;-82
2023/03/15 05:35:43;;;;;;;0.90;0.90;;;16.50;64.40;;;;;;5003915;28;20057;-82
2023/03/15 05:38:13;;;;;;;0.82;0.80;;;16.50;64.20;;;;;;5004692;28;20104;-83
2023/03/15 05:40:40;;;;;;;1.20;0.85;;;16.50;64.30;;;;;;5005269;28;20034;-83
2023/03/15 05:43:06;;;;;;;0.73;0.73;;;16.50;64.80;;;;;;5004672;28;22369;-83
2023/03/15 05:45:31;;;;;;;0.70;0.70;;;16.50;64.70;;;;;;5005541;28;20530;-83
2023/03/15 05:47:57;;;;;;;0.77;0.77;;;16.50;64.80;;;;;;5001276;28;20107;-83
2023/03/15 05:50:22;;;;;;;0.98;0.98;;;16.50;64.50;;;;;;5003331;28;20521;-83
2023/03/15 05:52:50;;;;;;;0.95;0.95;;;16.50;64.70;;;;;;5018218;28;20046;-83
2023/03/15 05:55:16;;;;;;;0.80;0.80;;;16.50;64.60;;;;;;5019250;28;20089;-83
2023/03/15 05:57:42;;;;;;;0.80;0.80;;;16.50;64.70;;;;;;5003545;28;20139;-83
2023/03/15 06:00:09;;;;;;;0.60;0.60;;;16.50;64.70;;;;;;4998631;28;20061;-83
2023/03/15 06:02:34;;;;;;;0.73;0.70;;;16.50;64.90;;;;;;5036860;28;20050;-83
2023/03/15 06:05:00;;;;;;;0.80;0.80;;;16.50;65.60;;;;;;5005848;28;20034;-83
2023/03/15 06:07:26;;;;;;;0.75;0.75;;;16.50;64.80;;;;;;5005592;28;20523;-83
2023/03/15 06:09:51;;;;;;;0.80;0.73;;;16.50;64.40;;;;;;5005362;28;20034;-83
2023/03/15 06:12:18;;;;;;;0.73;0.73;;;16.50;64.80;;;;;;5001561;28;20042;-83
2023/03/15 06:14:44;;;;;;;0.50;0.50;;;16.50;64.70;;;;;;5007862;28;20042;-83
2023/03/15 06:17:10;;;;;;;0.90;0.70;;;16.40;64.80;;;;;;5007561;28;20040;-83
2023/03/15 06:19:35;;;;;;;1.00;0.90;;;16.40;64.60;;;;;;5033207;28;20433;-83
2023/03/15 06:22:01;;;;;;;1.00;1.00;;;16.40;64.50;;;;;;5008098;28;20526;-83
2023/03/15 06:24:26;;;;;;;0.60;0.60;;;16.40;64.90;;;;;;5023196;28;20116;-83
2023/03/15 06:26:53;;;;;;;0.65;0.65;;;16.40;64.60;;;;;;5005634;28;20423;-83
2023/03/15 06:29:20;;;;;;;0.70;0.70;;;16.40;64.80;;;;;;5007688;28;20499;-81
2023/03/15 06:31:48;;;;;;;0.85;0.70;;;16.40;64.80;;;;;;5007896;28;20041;-82
2023/03/15 06:34:14;;;;;;;0.80;0.80;;;16.50;64.60;;;;;;5007508;28;20050;-82
2023/03/15 06:36:41;;;;;;;6.32;1.05;;;16.40;65.00;;;;;;5003413;28;20148;-82
2023/03/15 06:39:07;;;;;;;0.65;0.65;;;16.40;64.80;;;;;;5002835;28;20131;-82
2023/03/15 06:41:33;;;;;;;0.63;0.60;;;16.40;64.50;;;;;;5003477;28;20038;-83
2023/03/15 06:43:59;;;;;;;0.90;0.70;;;16.40;64.70;;;;;;4997738;28;20041;-82
2023/03/15 06:46:24;;;;;;;1.00;1.00;;;16.40;64.80;;;;;;5007635;28;20046;-82
2023/03/15 06:48:50;;;;;;;1.70;1.00;;;16.40;65.00;;;;;;5037609;28;20400;-84
2023/03/15 06:51:16;;;;;;;4.10;1.10;;;16.40;65.70;;;;;;5037601;28;20054;-83
2023/03/15 06:53:41;;;;;;;3.88;1.00;;;16.40;65.60;;;;;;5003409;28;20129;-84
2023/03/15 06:56:07;;;;;;;1.48;1.20;;;16.40;65.70;;;;;;5007711;28;20069;-84
2023/03/15 06:58:32;;;;;;;2.85;2.00;;;16.50;66.10;;;;;;5003152;28;20826;-87
2023/03/15 07:00:58;;;;;;;2.00;1.75;;;16.60;65.50;;;;;;5006688;28;20049;-86
2023/03/15 07:03:24;;;;;;;2.70;2.08;;;16.60;65.70;;;;;;5008790;28;20393;-86
2023/03/15 07:05:52;;;;;;;2.78;2.50;;;16.60;65.70;;;;;;5036568;28;20054;-88
2023/03/15 07:08:19;;;;;;;2.55;2.35;;;16.70;66.30;;;;;;5016323;28;20152;-84
2023/03/15 07:10:45;;;;;;;2.67;2.45;;;16.70;66.30;;;;;;5023835;28;20108;-86
2023/03/15 07:13:11;;;;;;;2.42;2.20;;;16.70;66.50;;;;;;5007101;28;20038;-86
2023/03/15 07:15:36;;;;;;;2.15;2.05;;;16.80;66.70;;;;;;5008561;28;20046;-83
2023/03/15 07:18:02;;;;;;;2.70;2.08;;;16.80;66.50;;;;;;5002275;28;20069;-83
2023/03/15 07:20:27;;;;;;;1.98;1.83;;;16.80;66.50;;;;;;5008256;28;20029;-84
2023/03/15 07:22:53;;;;;;;1.85;1.75;;;16.80;66.70;;;;;;5004556;28;20579;-83
2023/03/15 07:25:22;;;;;;;2.00;1.90;;;16.80;66.70;;;;;;5001250;28;20053;-86
2023/03/15 07:27:49;;;;;;;1.70;1.60;;;16.80;66.70;;;;;;5018110;28;20468;-85
2023/03/15 07:30:16;;;;;;;2.38;1.70;;;16.80;66.70;;;;;;5047528;28;20727;-84
2023/03/15 07:32:41;;;;;;;1.60;1.50;;;16.80;66.80;;;;;;5040038;28;20085;-82
2023/03/15 07:35:07;;;;;;;1.75;1.65;;;16.90;67.00;;;;;;5003867;28;20112;-80
2023/03/15 07:37:33;;;;;;;1.65;1.55;;;16.90;66.80;;;;;;5002737;28;20049;-81
2023/03/15 07:40:06;;;;;;;1.65;1.55;;;17.00;66.70;;;;;;5009693;28;20030;-81
2023/03/15 07:42:36;;;;;;;3.30;1.40;;;17.00;66.70;;;;;;5006406;28;20030;-82
2023/03/15 07:45:03;;;;;;;1.75;1.50;;;17.00;66.50;;;;;;5035406;28;20049;-84
2023/03/15 07:47:29;;;;;;;1.98;1.52;;;17.00;66.50;;;;;;5006206;28;20042;-81
2023/03/15 07:49:55;;;;;;;1.70;1.60;;;17.00;66.40;;;;;;5004580;28;20045;-81
2023/03/15 07:52:21;;;;;;;2.67;1.85;;;17.10;66.60;;;;;;5005219;28;20068;-80
2023/03/15 07:54:46;;;;;;;5.53;1.80;;;17.20;67.00;;;;;;5004295;28;20038;-81
2023/03/15 07:57:12;;;;;;;4.00;1.83;;;17.20;66.80;;;;;;5004068;28;20535;-80
2023/03/15 07:59:38;;;;;;;2.58;1.75;;;17.10;67.50;;;;;;5007460;28;20030;-83
2023/03/15 08:02:04;;;;;;;3.15;2.00;;;17.10;67.60;;;;;;5007184;28;20622;-82
2023/03/15 08:04:29;;;;;;;2.00;1.80;;;17.20;67.70;;;;;;5000493;28;20065;-83
2023/03/15 08:06:55;;;;;;;1.90;1.80;;;17.20;67.30;;;;;;5007388;28;20527;-79
2023/03/15 08:09:21;;;;;;;2.30;2.10;;;17.30;67.10;;;;;;5002831;28;20072;-80
2023/03/15 08:11:46;;;;;;;2.30;2.20;;;17.20;67.10;;;;;;5007549;28;20057;-80
2023/03/15 08:14:12;;;;;;;3.25;2.40;;;17.30;67.40;;;;;;5006967;28;20042;-81
2023/03/15 08:16:38;;;;;;;3.10;2.88;;;17.30;67.40;;;;;;5022902;28;20038;-83
2023/03/15 08:19:03;;;;;;;4.60;2.50;;;17.30;67.50;;;;;;5004818;28;20522;-84
2023/03/15 08:21:32;;;;;;;2.83;2.38;;;17.30;68.30;;;;;;5008021;28;20037;-83
2023/03/15 08:23:58;;;;;;;3.20;2.92;;;17.40;67.30;;;;;;5004086;28;20390;-86
2023/03/15 08:26:24;;;;;;;5.22;2.70;;;17.40;67.00;;;;;;5008181;28;20042;-86
2023/03/15 08:28:49;;;;;;;3.53;2.33;;;17.50;67.20;;;;;;5008264;28;20065;-90
2023/03/15 08:31:15;;;;;;;4.45;2.78;;;17.50;67.30;;;;;;5004420;28;20403;-85
2023/03/15 08:33:41;;;;;;;5.15;3.10;;;17.50;67.20;;;;;;5008657;28;20052;-85
2023/03/15 08:36:07;;;;;;;2.92;2.67;;;17.50;66.80;;;;;;5006563;28;20046;-83
2023/03/15 08:38:32;;;;;;;3.03;2.35;;;17.50;66.70;;;;;;5006119;28;20449;-80
2023/03/15 08:40:58;;;;;;;2.78;2.28;;;17.50;66.70;;;;;;5038839;28;20513;-79
2023/03/15 08:43:24;;;;;;;6.60;2.30;;;17.50;66.70;;;;;;5006954;28;20138;-80
2023/03/15 08:45:50;;;;;;;4.25;2.70;;;17.60;66.60;;;;;;5007460;28;20499;-81
2023/03/15 08:48:15;;;;;;;3.08;2.80;;;17.60;66.80;;;;;;5006603;28;20703;-81
2023/03/15 08:50:41;;;;;;;2.95;2.63;;;17.60;66.70;;;;;;5007867;28;20042;-80
2023/03/15 08:53:07;;;;;;;6.57;2.03;;;17.50;66.80;;;;;;5005273;28;20098;-74
2023/03/15 08:55:33;;;;;;;2.45;2.10;;;17.60;66.80;;;;;;5013199;28;24286;-74
2023/03/15 08:58:00;;;;;;;5.32;2.65;;;17.60;66.60;;;;;;5004302;28;20573;-75
2023/03/15 09:00:26;;;;;;;7.88;3.17;;;17.60;66.50;;;;;;5005676;28;20049;-74
2023/03/15 09:02:52;;;;;;;3.13;2.53;;;17.70;66.60;;;;;;5004388;28;20042;-74
2023/03/15 09:05:18;;;;;;;4.45;4.05;;;17.70;66.30;;;;;;4997652;28;20212;-74
2023/03/15 09:07:44;;;;;;;5.03;4.63;;;17.90;66.10;;;;;;5000109;28;20388;-74
2023/03/15 09:10:13;;;;;;;7.45;5.80;;;18.00;65.70;;;;;;4993695;28;20092;-74
2023/03/15 09:12:42;;;;;;;9.25;5.93;;;18.10;65.80;;;;;;5006194;28;20380;-74
2023/03/15 09:15:08;;;;;;;6.93;5.00;;;18.20;65.30;;;;;;5037623;28;20037;-75
2023/03/15 09:17:34;;;;;;;8.20;4.82;;;18.30;65.20;;;;;;5003191;28;20125;-74
2023/03/15 09:19:59;;;;;;;5.70;4.78;;;18.40;64.60;;;;;;5005779;28;20164;-76
2023/03/15 09:22:25;;;;;;;7.78;4.38;;;18.50;64.20;;;;;;5008035;28;20050;-76
2023/03/15 09:24:51;;;;;;;6.07;4.50;;;18.70;63.70;;;;;;5004813;28;20419;-74
2023/03/15 09:27:17;;;;;;;7.10;4.45;;;18.80;63.30;;;;;;5002267;28;20041;-75
2023/03/15 09:29:42;;;;;;;6.00;4.50;;;18.90;63.00;;;;;;5005990;28;20040;-81
2023/03/15 09:32:08;;;;;;;6.28;3.90;;;19.00;62.90;;;;;;5002624;28;20515;-74
2023/03/15 09:34:34;;;;;;;5.65;4.22;;;19.10;62.60;;;;;;5053482;28;20042;-74
2023/03/15 09:37:00;;;;;;;4.82;3.28;;;19.10;62.60;;;;;;5005101;28;20121;-76
2023/03/15 09:39:25;;;;;;;6.82;3.97;;;19.20;62.20;;;;;;5009523;28;20161;-74
2023/03/15 09:41:55;;;;;;;6.03;3.40;;;19.20;61.80;;;;;;4989323;28;20100;-75
2023/03/15 09:44:32;;;;;;;8.77;3.92;;;19.40;61.40;;;;;;4971402;28;20062;-76
2023/03/15 09:47:24;;;;;;;3.40;3.10;;;19.50;61.10;;;;;;5007560;28;20054;-75
2023/03/15 09:49:58;;;;;;;4.82;3.03;;;19.60;60.70;;;;;;5005088;28;20046;-74
2023/03/15 09:52:42;;;;;;;6.35;3.72;;;19.60;60.40;;;;;;4987654;28;20457;-75
2023/03/15 09:55:27;;;;;;;3.80;3.45;;;19.60;60.30;;;;;;4987891;28;20166;-77
2023/03/15 09:57:55;;;;;;;4.43;3.20;;;19.70;60.20;;;;;;4992669;28;20053;-75
2023/03/15 10:00:43;;;;;;;2.95;2.75;;;19.70;60.10;;;;;;5005609;28;20054;-77
2023/03/15 10:03:21;;;;;;;3.20;3.00;;;19.70;60.30;;;;;;4986647;28;20050;-75
2023/03/15 10:05:49;;;;;;;3.95;3.55;;;19.80;60.00;;;;;;4990735;28;20446;-76
2023/03/15 10:08:16;;;;;;;3.35;3.15;;;19.80;60.10;;;;;;4971542;28;20064;-79
2023/03/15 10:11:05;;;;;;;3.90;2.72;;;19.90;60.00;;;;;;5004832;28;20420;-78
2023/03/15 10:13:57;;;;;;;4.50;2.78;;;19.90;59.90;;;;;;5018824;28;20041;-78
2023/03/15 10:16:45;;;;;;;3.25;2.38;;;19.90;60.00;;;;;;4994730;28;20099;-77
2023/03/15 10:19:14;;;;;;;2.60;2.40;;;19.90;60.00;;;;;;4994483;28;20157;-76
2023/03/15 10:21:48;;;;;;;3.70;2.40;;;19.90;60.00;;;;;;4996078;28;20144;-76
2023/03/15 10:24:18;;;;;;;2.95;2.75;;;19.90;60.00;;;;;;4990266;28;20050;-79
2023/03/15 10:26:44;;;;;;;2.97;2.70;;;19.90;60.00;;;;;;4991563;28;20061;-76
2023/03/15 10:29:14;;;;;;;3.80;2.50;;;19.90;60.00;;;;;;5008425;28;20049;-76
2023/03/15 10:31:41;;;;;;;3.28;2.22;;;19.80;60.00;;;;;;4992261;28;20046;-77
2023/03/15 10:34:10;;;;;;;1.95;1.85;;;19.90;60.30;;;;;;4992698;28;20069;-76
2023/03/15 10:36:35;;;;;;;3.47;2.42;;;19.80;60.40;;;;;;4992706;28;20111;-75
2023/03/15 10:39:02;;;;;;;2.40;2.25;;;19.90;60.40;;;;;;4994784;28;20068;-77
2023/03/15 10:41:45;;;;;;;2.20;2.10;;;19.80;60.20;;;;;;4992935;28;20089;-77
2023/03/15 10:44:24;;;;;;;2.20;2.00;;;19.80;60.40;;;;;;4999693;28;20060;-78
2023/03/15 10:47:06;;;;;;;4.00;2.08;;;19.80;60.20;;;;;;4994960;28;20099;-77
2023/03/15 10:49:34;;;;;;;2.42;2.17;;;19.90;60.00;;;;;;5002449;28;20053;-78
2023/03/15 10:51:59;;;;;;;2.78;1.98;;;19.90;60.00;;;;;;4997627;28;20052;-78
2023/03/15 10:54:25;;;;;;;2.63;2.00;;;19.90;60.00;;;;;;4995280;28;20054;-77
2023/03/15 10:56:58;;;;;;;4.05;2.08;;;19.90;60.70;;;;;;4994401;28;20048;-78
2023/03/15 10:59:25;;;;;;;2.63;2.08;;;19.90;60.80;;;;;;4975345;28;20056;-78
2023/03/15 11:01:52;;;;;;;2.47;1.90;;;19.80;60.40;;;;;;4992927;28;20057;-78
2023/03/15 11:04:23;;;;;;;3.10;1.83;;;19.80;59.90;;;;;;4989744;28;21050;-77
2023/03/15 11:06:50;;;;;;;1.90;1.80;;;19.80;60.00;;;;;;4999920;28;21067;-78
2023/03/15 11:09:25;;;;;;;2.17;1.70;;;19.90;60.00;;;;;;4990894;28;20073;-78
2023/03/15 11:12:03;;;;;;;2.20;1.70;;;19.80;60.00;;;;;;4992761;28;20140;-78
2023/03/15 11:14:43;;;;;;;3.00;1.50;;;19.80;60.00;;;;;;4989859;28;20145;-77
2023/03/15 11:17:20;;;;;;;2.35;1.92;;;19.90;60.00;;;;;;4993270;28;20247;-78
2023/03/15 11:20:25;;;;;;;1.92;1.83;;;19.80;59.90;;;;;;4975552;28;20558;-78
2023/03/15 11:22:50;;;;;;;;;;;19.80;60.00;;;;;;4985693;28;20045;-76
2023/03/15 11:25:16;;;;;;;3.75;1.50;;;19.80;60.00;;;;;;5007753;28;19926;-76
2023/03/15 11:27:42;;;;;;;1.52;1.42;;;19.80;60.00;;;;;;4976651;28;20087;-76
2023/03/15 11:30:14;;;;;;;2.72;1.30;;;19.80;59.90;;;;;;4990770;28;20053;-76
2023/03/15 11:32:40;;;;;;;3.67;2.03;;;19.80;59.80;;;;;;4990439;28;20454;-76
2023/03/15 11:35:07;;;;;;;10.55;4.15;;;19.80;60.00;;;;;;4977294;28;20054;-75
2023/03/15 11:37:41;;;;;;;8.05;4.70;;;19.80;60.60;;;;;;4974206;28;20064;-76
2023/03/15 11:40:23;;;;;;;5.68;4.13;;;19.80;60.80;;;;;;4976028;28;20562;-78
2023/03/15 11:43:01;;;;;;;5.90;3.58;;;19.80;60.90;;;;;;4991292;28;20085;-76
2023/03/15 11:45:40;;;;;;;5.97;3.30;;;19.70;61.30;;;;;;4994519;28;20053;-78
2023/03/15 11:48:15;;;;;;;6.78;3.00;;;19.70;61.40;;;;;;4991558;28;20045;-77
2023/03/15 11:50:41;;;;;;;5.80;3.17;;;19.80;61.50;;;;;;4969093;28;20046;-77
2023/03/15 11:53:07;;;;;;;4.70;2.53;;;19.80;61.40;;;;;;4974697;28;20479;-76
2023/03/15 11:55:32;;;;;;;3.63;2.90;;;19.80;61.80;;;;;;4975996;28;20554;-77
2023/03/15 11:58:18;;;;;;;4.63;3.15;;;19.70;62.60;;;;;;4991672;28;20588;-76
2023/03/15 12:00:48;;;;;;;4.70;3.40;;;19.70;63.20;;;;;;4995392;28;20633;-76
2023/03/15 12:03:33;;;;;;;5.43;3.45;;;19.80;63.10;;;;;;4990938;28;20435;-77
2023/03/15 12:06:03;;;;;;;4.95;3.30;;;19.80;63.10;;;;;;4991482;28;20797;-78
2023/03/15 12:08:50;;;;;;;6.57;3.58;;;19.80;63.20;;;;;;5006856;28;20056;-76
2023/03/15 12:11:19;;;;;;;6.95;3.00;;;19.80;63.10;;;;;;4991133;28;20152;-77
2023/03/15 12:14:02;;;;;;;4.90;2.88;;;19.80;63.10;;;;;;4992448;28;20103;-76
2023/03/15 12:16:29;;;;;;;5.60;3.30;;;19.70;63.40;;;;;;5005792;28;20522;-77
2023/03/15 12:19:00;;;;;;;4.03;2.85;;;19.80;63.00;;;;;;4991412;28;20042;-78
2023/03/15 12:21:52;;;;;;;3.17;2.53;;;19.80;63.20;;;;;;4974822;28;20041;-77
2023/03/15 12:24:22;;;;;;;3.28;2.60;;;19.70;63.00;;;;;;4989592;28;20037;-77
2023/03/15 12:27:01;;;;;;;5.55;3.17;;;19.70;63.00;;;;;;4990277;28;20057;-76
2023/03/15 12:29:27;;;;;;;7.80;5.22;;;19.80;62.70;;;;;;4961362;28;20049;-75
2023/03/15 12:32:04;;;;;;;7.55;6.03;;;19.70;63.30;;;;;;4990564;28;20060;-76
2023/03/15 12:34:33;;;;;;;6.32;5.70;;;19.80;63.10;;;;;;4979256;28;20060;-77
2023/03/15 12:37:02;;;;;;;6.75;5.72;;;19.70;62.60;;;;;;4993708;28;20076;-77
2023/03/15 12:39:37;;;;;;;8.45;5.63;;;19.70;62.60;;;;;;5009481;28;20084;-77
2023/03/15 12:42:03;;;;;;;6.55;5.40;;;19.70;62.40;;;;;;5006598;28;20157;-77
2023/03/15 12:44:32;;;;;;;7.10;4.85;;;19.70;62.40;;;;;;4974756;28;20076;-77
2023/03/15 12:47:05;;;;;;;5.68;4.35;;;19.70;62.30;;;;;;5005054;28;20639;-77
2023/03/15 12:49:36;;;;;;;4.68;4.28;;;19.70;62.20;;;;;;5007259;28;20515;-77
2023/03/15 12:52:01;;;;;;;4.47;4.07;;;19.70;62.10;;;;;;4992361;28;20654;-77
2023/03/15 12:54:32;;;;;;;4.03;3.70;;;19.70;61.90;;;;;;4990885;28;20057;-77